createdAt,value
2024-04-24T00:01:24.952Z,996.9
2024-04-24T00:02:47.985Z,997
2024-04-24T00:04:09.992Z,997
2024-04-24T00:05:32.149Z,996.9
2024-04-24T00:06:54.017Z,996.9
2024-04-24T00:08:15.959Z,997
2024-04-24T00:09:37.940Z,996.9
2024-04-24T00:11:00.987Z,996.8
2024-04-24T00:12:23.092Z,996.9
2024-04-24T00:13:45.977Z,996.5
2024-04-24T00:15:07.933Z,996.6
2024-04-24T00:16:29.957Z,996.8
2024-04-24T00:17:10.968Z,996.8
2024-04-24T00:17:52.078Z,996.8
2024-04-24T00:19:13.942Z,996.8
2024-04-24T00:20:35.932Z,996.8
2024-04-24T00:21:57.936Z,996.8
2024-04-24T00:23:23.658Z,996.7
2024-04-24T00:25:27.937Z,996.7
2024-04-24T00:26:50.964Z,996.7
2024-04-24T00:27:31.942Z,996.7
2024-04-24T00:28:54.040Z,996.7
2024-04-24T00:29:34.938Z,996.7
2024-04-24T00:30:15.952Z,996.6
2024-04-24T00:31:37.932Z,996.6
2024-04-24T00:33:41.066Z,996.7
2024-04-24T00:35:02.968Z,996.6
2024-04-24T00:37:06.951Z,996.6
2024-04-24T00:38:28.947Z,996.1
2024-04-24T00:39:51.948Z,996.5
2024-04-24T00:43:18.941Z,996.5
2024-04-24T00:45:22.001Z,996.5
2024-04-24T00:46:43.968Z,996.5
2024-04-24T00:48:05.984Z,996.4
2024-04-24T00:49:27.940Z,996.3
2024-04-24T00:50:49.966Z,996.3
2024-04-24T00:52:11.978Z,996.4
2024-04-24T00:53:34.978Z,996.4
2024-04-24T00:54:56.958Z,996.3
2024-04-24T00:56:18.993Z,996.3
2024-04-24T00:57:40.971Z,996.5
2024-04-24T00:59:02.993Z,996.3
2024-04-24T01:00:25.016Z,996.2
2024-04-24T01:01:05.954Z,996.2
2024-04-24T01:01:47.020Z,996.3
2024-04-24T01:03:09.132Z,996.3
2024-04-24T01:04:31.049Z,996.3
2024-04-24T01:05:52.967Z,996.3
2024-04-24T01:07:15.003Z,996.1
2024-04-24T01:08:36.956Z,996.3
2024-04-24T01:09:58.994Z,996.3
2024-04-24T01:11:21.591Z,996.4
2024-04-24T01:12:42.985Z,996.3
2024-04-24T01:14:04.971Z,996.3
2024-04-24T01:15:26.961Z,996.3
2024-04-24T01:16:49.072Z,996.3
2024-04-24T01:18:11.206Z,996.3
2024-04-24T01:19:33.671Z,996.2
2024-04-24T01:20:55.964Z,996.3
2024-04-24T01:22:18.062Z,996.2
2024-04-24T01:22:58.982Z,996.3
2024-04-24T01:24:20.975Z,996.2
2024-04-24T01:26:24.988Z,996.2
2024-04-24T01:27:47.228Z,996.2
2024-04-24T01:29:09.001Z,996.2
2024-04-24T01:32:35.035Z,996.1
2024-04-24T01:36:35.976Z,995.5
2024-04-24T01:37:16.993Z,995.7
2024-04-24T01:39:21.015Z,996.1
2024-04-24T01:41:26.071Z,996.1
2024-04-24T01:42:48.655Z,996.1
2024-04-24T01:44:11.037Z,996
2024-04-24T01:45:32.984Z,995.9
2024-04-24T01:46:14.100Z,996
2024-04-24T01:47:36.143Z,996
2024-04-24T01:49:38.981Z,996
2024-04-24T01:51:01.974Z,996
2024-04-24T01:52:23.974Z,996.2
2024-04-24T01:53:46.022Z,996
2024-04-24T01:54:26.981Z,996
2024-04-24T01:55:48.982Z,996
2024-04-24T01:57:51.983Z,995.9
2024-04-24T01:59:14.064Z,995.9
2024-04-24T02:00:36.053Z,995.9
2024-04-24T02:01:58.002Z,995.9
2024-04-24T02:03:21.019Z,995.8
2024-04-24T02:04:44.005Z,995.5
2024-04-24T02:06:05.994Z,995.7
2024-04-24T02:07:27.986Z,996
2024-04-24T02:08:50.138Z,995.8
2024-04-24T02:10:12.141Z,995.8
2024-04-24T02:11:36.124Z,995.7
2024-04-24T02:12:56.025Z,995.8
2024-04-24T02:14:18.036Z,995.7
2024-04-24T02:15:40.063Z,995.7
2024-04-24T02:17:02.993Z,995.8
2024-04-24T02:18:25.182Z,995.7
2024-04-24T02:19:06.019Z,995.7
2024-04-24T02:19:47.012Z,995.6
2024-04-24T02:21:09.097Z,995.7
2024-04-24T02:22:31.730Z,995.6
2024-04-24T02:23:53.092Z,995.6
2024-04-24T02:25:14.993Z,995.5
2024-04-24T02:26:36.995Z,995.6
2024-04-24T02:27:59.008Z,995.5
2024-04-24T02:29:21.082Z,995.3
2024-04-24T02:30:45.004Z,995.4
2024-04-24T02:32:07.162Z,995.4
2024-04-24T02:33:29.059Z,995.4
2024-04-24T02:34:51.160Z,995.4
2024-04-24T02:35:32.005Z,995.3
2024-04-24T02:36:13.049Z,995.3
2024-04-24T02:37:37.780Z,995.5
2024-04-24T02:38:57.006Z,995.4
2024-04-24T02:40:19.018Z,995.3
2024-04-24T02:41:41.008Z,995.4
2024-04-24T02:43:03.033Z,995.3
2024-04-24T02:44:25.034Z,994.9
2024-04-24T02:45:47.084Z,995.2
2024-04-24T02:47:09.051Z,995.3
2024-04-24T02:48:31.116Z,995
2024-04-24T02:49:53.129Z,995.2
2024-04-24T02:51:15.002Z,995.2
2024-04-24T02:52:37.229Z,995.2
2024-04-24T02:53:58.998Z,995.2
2024-04-24T02:55:21.061Z,995.2
2024-04-24T02:56:45.007Z,995.2
2024-04-24T02:58:07.053Z,995.2
2024-04-24T02:59:29.016Z,995.2
2024-04-24T03:00:51.045Z,995.2
2024-04-24T03:02:13.170Z,995
2024-04-24T03:03:35.145Z,995.1
2024-04-24T03:04:57.076Z,995.1
2024-04-24T03:06:19.663Z,995.1
2024-04-24T03:07:42.025Z,995.1
2024-04-24T03:09:04.051Z,995.1
2024-04-24T03:10:26.036Z,995
2024-04-24T03:11:48.091Z,995
2024-04-24T03:13:10.030Z,995.1
2024-04-24T03:14:32.045Z,995.2
2024-04-24T03:15:54.024Z,995
2024-04-24T03:17:16.127Z,995
2024-04-24T03:18:38.064Z,995
2024-04-24T03:20:00.069Z,995
2024-04-24T03:21:22.044Z,995
2024-04-24T03:22:44.042Z,995
2024-04-24T03:24:06.039Z,994.8
2024-04-24T03:25:28.033Z,994.6
2024-04-24T03:26:50.031Z,995
2024-04-24T03:28:12.031Z,995
2024-04-24T03:29:34.074Z,995
2024-04-24T03:30:57.022Z,995
2024-04-24T03:33:00.178Z,995
2024-04-24T03:34:22.043Z,994.7
2024-04-24T03:37:47.092Z,994.9
2024-04-24T03:39:50.078Z,994.9
2024-04-24T03:41:12.144Z,994.9
2024-04-24T03:42:37.202Z,994.9
2024-04-24T03:45:59.075Z,994.9
2024-04-24T03:48:04.173Z,994.9
2024-04-24T03:49:26.033Z,994.9
2024-04-24T03:50:48.041Z,994.9
2024-04-24T03:52:10.091Z,994.9
2024-04-24T03:53:32.034Z,994.8
2024-04-24T03:54:13.084Z,994.8
2024-04-24T03:54:54.109Z,994.9
2024-04-24T03:56:16.122Z,994.9
2024-04-24T03:57:38.093Z,995
2024-04-24T03:59:00.089Z,995
2024-04-24T04:00:22.063Z,994.9
2024-04-24T04:01:44.057Z,994.8
2024-04-24T04:03:06.138Z,994.8
2024-04-24T04:04:28.081Z,994.9
2024-04-24T04:05:50.054Z,994.8
2024-04-24T04:07:12.056Z,994.7
2024-04-24T04:08:34.078Z,994.7
2024-04-24T04:09:56.045Z,994.9
2024-04-24T04:11:18.095Z,994.8
2024-04-24T04:12:40.055Z,994.8
2024-04-24T04:14:03.180Z,994.7
2024-04-24T04:15:25.053Z,994.6
2024-04-24T04:17:28.277Z,993.9
2024-04-24T04:18:50.623Z,993.8
2024-04-24T04:19:32.069Z,994.4
2024-04-24T04:20:54.056Z,994.5
2024-04-24T04:22:16.091Z,994.6
2024-04-24T04:23:38.096Z,994.5
2024-04-24T04:25:41.061Z,994.4
2024-04-24T04:27:03.102Z,994.5
2024-04-24T04:30:28.108Z,994.6
2024-04-24T04:32:31.224Z,994.5
2024-04-24T04:33:53.144Z,994.5
2024-04-24T04:35:16.222Z,994.5
2024-04-24T04:38:41.060Z,994.5
2024-04-24T04:40:44.102Z,994.6
2024-04-24T04:42:06.742Z,994.6
2024-04-24T04:43:30.093Z,994.6
2024-04-24T04:44:52.093Z,994.6
2024-04-24T04:46:55.146Z,994.6
2024-04-24T04:48:58.137Z,994.6
2024-04-24T04:50:20.104Z,994.6
2024-04-24T04:51:44.106Z,994.6
2024-04-24T04:53:06.112Z,994.6
2024-04-24T04:55:09.116Z,994.5
2024-04-24T04:57:12.100Z,994.5
2024-04-24T04:58:34.087Z,994.6
2024-04-24T04:59:56.094Z,994.5
2024-04-24T05:01:18.097Z,994.5
2024-04-24T05:03:21.212Z,994.6
2024-04-24T05:05:26.151Z,994.4
2024-04-24T05:06:48.079Z,994.4
2024-04-24T05:08:10.124Z,994.4
2024-04-24T05:09:32.107Z,994.3
2024-04-24T05:11:35.124Z,994.4
2024-04-24T05:13:38.078Z,994.4
2024-04-24T05:15:00.179Z,994.3
2024-04-24T05:16:22.068Z,994.4
2024-04-24T05:17:44.268Z,994.3
2024-04-24T05:19:47.119Z,994.3
2024-04-24T05:21:50.109Z,994.2
2024-04-24T05:23:12.373Z,994.2
2024-04-24T05:24:34.079Z,994.2
2024-04-24T05:25:56.861Z,994.2
2024-04-24T05:28:00.133Z,994.2
2024-04-24T05:30:08.102Z,994.2
2024-04-24T05:31:30.124Z,994.2
2024-04-24T05:32:53.143Z,994
2024-04-24T05:34:15.104Z,994.1
2024-04-24T05:35:38.126Z,994.1
2024-04-24T05:37:00.148Z,994.1
2024-04-24T05:38:22.160Z,994.1
2024-04-24T05:39:44.110Z,994.1
2024-04-24T05:41:06.149Z,994.1
2024-04-24T05:42:28.144Z,994.1
2024-04-24T05:43:50.241Z,994.1
2024-04-24T05:46:34.137Z,994.1
2024-04-24T05:47:56.954Z,994.1
2024-04-24T05:49:19.109Z,994.2
2024-04-24T05:50:41.220Z,994.2
2024-04-24T05:52:03.882Z,994.1
2024-04-24T05:52:44.217Z,993.8
2024-04-24T05:53:25.177Z,994
2024-04-24T05:54:47.118Z,994.1
2024-04-24T05:56:09.134Z,994
2024-04-24T05:57:31.136Z,994.1
2024-04-24T05:58:53.190Z,994.1
2024-04-24T06:00:15.154Z,994
2024-04-24T06:01:02.432Z,994
2024-04-24T06:02:25.099Z,994.1
2024-04-24T06:04:23.018Z,994
2024-04-24T06:05:45.156Z,993.7
2024-04-24T06:07:07.112Z,993.9
2024-04-24T06:08:29.127Z,994.1
2024-04-24T06:09:10.214Z,994
2024-04-24T06:10:32.131Z,994
2024-04-24T06:12:35.148Z,993.9
2024-04-24T06:13:57.132Z,994
2024-04-24T06:15:19.129Z,994
2024-04-24T06:16:41.226Z,994
2024-04-24T06:18:03.155Z,994
2024-04-24T06:19:25.226Z,994
2024-04-24T06:20:47.178Z,994
2024-04-24T06:22:09.142Z,994
2024-04-24T06:23:32.133Z,993.9
2024-04-24T06:24:54.129Z,993.9
2024-04-24T06:26:57.129Z,993.9
2024-04-24T06:29:00.255Z,993.9
2024-04-24T06:30:23.157Z,993.9
2024-04-24T06:31:45.294Z,993.9
2024-04-24T06:33:07.344Z,993.9
2024-04-24T06:34:29.117Z,993.9
2024-04-24T06:35:51.144Z,993.9
2024-04-24T06:37:13.128Z,994
2024-04-24T06:38:35.136Z,993.6
2024-04-24T06:39:57.127Z,993.8
2024-04-24T06:41:19.218Z,993.9
2024-04-24T06:42:41.154Z,993.8
2024-04-24T06:44:03.170Z,993.8
2024-04-24T06:45:25.170Z,993.9
2024-04-24T06:46:47.158Z,993.9
2024-04-24T06:48:09.220Z,993.8
2024-04-24T06:48:50.192Z,993.8
2024-04-24T06:49:31.200Z,993.8
2024-04-24T06:50:53.141Z,993.9
2024-04-24T06:52:15.158Z,993.8
2024-04-24T06:53:37.151Z,993.8
2024-04-24T06:54:59.183Z,993.8
2024-04-24T06:56:21.191Z,993.7
2024-04-24T06:58:25.185Z,993.8
2024-04-24T06:59:47.179Z,993.7
2024-04-24T07:03:12.565Z,993.6
2024-04-24T07:05:15.161Z,993.5
2024-04-24T07:06:37.177Z,993.3
2024-04-24T07:07:59.177Z,993.6
2024-04-24T07:11:25.267Z,993.5
2024-04-24T07:12:06.264Z,993.6
2024-04-24T07:13:28.162Z,993.5
2024-04-24T07:14:50.467Z,993.5
2024-04-24T07:16:15.210Z,993.5
2024-04-24T07:17:37.267Z,993.6
2024-04-24T07:18:18.226Z,993.6
2024-04-24T07:19:40.153Z,993.5
2024-04-24T07:20:21.207Z,993.5
2024-04-24T07:21:45.159Z,993.5
2024-04-24T07:23:07.210Z,993.6
2024-04-24T07:24:29.152Z,993.5
2024-04-24T07:25:51.451Z,992.1
2024-04-24T07:26:32.559Z,993.2
2024-04-24T07:27:15.210Z,993.3
2024-04-24T07:28:35.161Z,993.5
2024-04-24T07:29:57.244Z,993.5
2024-04-24T07:31:19.198Z,993.3
2024-04-24T07:32:41.219Z,993.4
2024-04-24T07:34:03.189Z,993.5
2024-04-24T07:36:07.775Z,993.6
2024-04-24T07:38:09.163Z,993.6
2024-04-24T07:39:31.180Z,993.6
2024-04-24T07:40:53.241Z,993.3
2024-04-24T07:42:15.183Z,993.5
2024-04-24T07:44:18.229Z,993.6
2024-04-24T07:45:40.219Z,993.5
2024-04-24T07:46:21.173Z,993.5
2024-04-24T07:47:44.344Z,993.6
2024-04-24T07:49:07.291Z,993.5
2024-04-24T07:50:29.323Z,993.5
2024-04-24T07:52:32.204Z,993.5
2024-04-24T07:54:35.279Z,993.2
2024-04-24T07:55:57.230Z,993.4
2024-04-24T07:57:19.183Z,993.4
2024-04-24T08:00:46.316Z,993.4
2024-04-24T08:02:08.223Z,993.4
2024-04-24T08:03:30.193Z,993.3
2024-04-24T08:04:52.226Z,993.3
2024-04-24T08:06:14.216Z,993.3
2024-04-24T08:07:36.208Z,993.4
2024-04-24T08:09:00.184Z,993.3
2024-04-24T08:10:22.198Z,993.3
2024-04-24T08:11:44.295Z,993.3
2024-04-24T08:12:25.367Z,993.3
2024-04-24T08:13:06.184Z,993.3
2024-04-24T08:14:30.257Z,993.3
2024-04-24T08:15:52.201Z,993.3
2024-04-24T08:17:14.266Z,993.3
2024-04-24T08:18:36.230Z,993.3
2024-04-24T08:19:58.240Z,993.4
2024-04-24T08:21:20.251Z,993.2
2024-04-24T08:22:44.182Z,993.1
2024-04-24T08:24:06.176Z,993.3
2024-04-24T08:25:28.172Z,993.3
2024-04-24T08:26:50.223Z,993.3
2024-04-24T08:28:12.787Z,993.3
2024-04-24T08:29:34.296Z,993.3
2024-04-24T08:30:56.183Z,993.3
2024-04-24T08:32:19.273Z,993.4
2024-04-24T08:33:41.312Z,993.3
2024-04-24T08:35:04.258Z,993.3
2024-04-24T08:36:26.197Z,993.3
2024-04-24T08:37:48.225Z,993.3
2024-04-24T08:39:10.236Z,993.3
2024-04-24T08:40:32.393Z,993.3
2024-04-24T08:41:56.297Z,993.3
2024-04-24T08:43:16.209Z,993.3
2024-04-24T08:44:38.277Z,993.2
2024-04-24T08:46:00.287Z,993.2
2024-04-24T08:47:23.332Z,993.3
2024-04-24T08:48:45.344Z,993.2
2024-04-24T08:50:07.236Z,993.2
2024-04-24T08:51:31.464Z,993.2
2024-04-24T08:52:53.237Z,993.2
2024-04-24T08:54:15.243Z,993.2
2024-04-24T08:55:37.292Z,993.2
2024-04-24T08:56:59.208Z,993.1
2024-04-24T08:58:21.220Z,993.3
2024-04-24T08:59:44.196Z,993
2024-04-24T09:01:06.216Z,993.1
2024-04-24T09:02:32.039Z,993.2
2024-04-24T09:06:48.017Z,993.1
2024-04-24T09:09:22.211Z,993.1
2024-04-24T09:10:14.047Z,993.1
2024-04-24T09:13:38.023Z,993
2024-04-24T09:19:03.263Z,993
2024-04-24T09:20:25.196Z,993
2024-04-24T09:21:47.146Z,993
2024-04-24T09:22:28.186Z,992.9
2024-04-24T09:23:50.166Z,992.9
2024-04-24T09:27:15.211Z,992.9
2024-04-24T09:28:37.152Z,993
2024-04-24T09:30:40.259Z,992.9
2024-04-24T09:32:03.201Z,992.9
2024-04-24T09:35:28.245Z,992.9
2024-04-24T09:36:50.207Z,992.8
2024-04-24T09:38:53.152Z,992.8
2024-04-24T09:40:15.263Z,992.8
2024-04-24T09:43:40.175Z,992.2
2024-04-24T09:45:44.283Z,992.8
2024-04-24T09:47:06.158Z,992.5
2024-04-24T09:48:29.606Z,992.7
2024-04-24T09:49:50.242Z,992.9
2024-04-24T09:51:12.441Z,992.8
2024-04-24T09:52:34.179Z,992.8
2024-04-24T09:53:56.154Z,992.8
2024-04-24T09:55:20.936Z,992.8
2024-04-24T09:56:40.164Z,992.8
2024-04-24T09:58:03.165Z,992.8
2024-04-24T09:59:25.292Z,992.7
2024-04-24T10:00:50.282Z,992.7
2024-04-24T10:02:12.190Z,992.7
2024-04-24T10:03:34.174Z,992.7
2024-04-24T10:04:56.311Z,992.7
2024-04-24T10:06:18.192Z,992.7
2024-04-24T10:07:40.149Z,992.7
2024-04-24T10:09:03.157Z,992.7
2024-04-24T10:10:25.188Z,992.7
2024-04-24T10:11:47.213Z,992.7
2024-04-24T10:13:09.169Z,992.7
2024-04-24T10:14:31.212Z,992.7
2024-04-24T10:15:53.167Z,992.7
2024-04-24T10:17:15.298Z,992.6
2024-04-24T10:18:37.331Z,992.7
2024-04-24T10:20:02.842Z,992.7
2024-04-24T10:21:21.219Z,992.6
2024-04-24T10:22:44.169Z,992.6
2024-04-24T10:24:06.278Z,992.6
2024-04-24T10:25:28.171Z,992.6
2024-04-24T10:26:50.216Z,992.6
2024-04-24T10:28:12.195Z,992.6
2024-04-24T10:29:34.202Z,992.6
2024-04-24T10:30:56.214Z,992.6
2024-04-24T10:32:18.295Z,992.6
2024-04-24T10:33:40.330Z,992.6
2024-04-24T10:35:03.212Z,992.5
2024-04-24T10:36:25.211Z,992.5
2024-04-24T10:37:47.178Z,992.5
2024-04-24T10:39:09.376Z,992.5
2024-04-24T10:40:31.215Z,992.5
2024-04-24T10:41:53.190Z,992.5
2024-04-24T10:43:15.195Z,992.5
2024-04-24T10:44:37.246Z,992.5
2024-04-24T10:45:59.203Z,992.5
2024-04-24T10:47:21.216Z,992.5
2024-04-24T10:48:44.265Z,992.5
2024-04-24T10:50:06.226Z,992.5
2024-04-24T10:51:28.224Z,992.5
2024-04-24T10:52:50.275Z,992.5
2024-04-24T10:54:12.344Z,992.5
2024-04-24T10:55:34.205Z,992.4
2024-04-24T10:56:56.230Z,992.5
2024-04-24T10:58:18.214Z,992.5
2024-04-24T10:59:40.206Z,992.5
2024-04-24T11:01:03.288Z,992.5
2024-04-24T11:02:25.296Z,992.6
2024-04-24T11:03:47.208Z,992.5
2024-04-24T11:05:09.207Z,992.4
2024-04-24T11:06:31.248Z,992.5
2024-04-24T11:07:53.220Z,992.5
2024-04-24T11:09:15.226Z,992.4
2024-04-24T11:10:37.465Z,992.5
2024-04-24T11:11:18.591Z,992.5
2024-04-24T11:11:59.400Z,992.4
2024-04-24T11:13:21.230Z,992.5
2024-04-24T11:14:44.264Z,992.4
2024-04-24T11:16:08.728Z,992.4
2024-04-24T11:17:28.506Z,992.4
2024-04-24T11:18:50.343Z,992.4
2024-04-24T11:20:12.249Z,992.4
2024-04-24T11:22:56.263Z,992.3
2024-04-24T11:24:18.211Z,992.4
2024-04-24T11:25:45.664Z,992.3
2024-04-24T11:27:03.224Z,992.3
2024-04-24T11:28:25.201Z,992.4
2024-04-24T11:29:47.214Z,992.3
2024-04-24T11:31:11.050Z,992.3
2024-04-24T11:32:31.402Z,992.3
2024-04-24T11:33:53.318Z,992.3
2024-04-24T11:35:15.251Z,992.3
2024-04-24T11:36:37.271Z,992.3
2024-04-24T11:37:59.232Z,992.4
2024-04-24T11:39:22.036Z,991.7
2024-04-24T11:40:44.229Z,992.2
2024-04-24T11:42:06.237Z,992.4
2024-04-24T11:43:28.247Z,992.3
2024-04-24T11:44:50.221Z,992.3
2024-04-24T11:46:12.244Z,992.3
2024-04-24T11:47:34.420Z,992.3
2024-04-24T11:48:56.267Z,992.2
2024-04-24T11:50:18.293Z,992.3
2024-04-24T11:51:40.243Z,992.2
2024-04-24T11:53:45.224Z,992.2
2024-04-24T11:55:07.228Z,992.2
2024-04-24T11:56:29.257Z,992.2
2024-04-24T11:58:32.262Z,992.1
2024-04-24T12:00:35.226Z,992.2
2024-04-24T12:01:57.255Z,992.1
2024-04-24T12:03:21.955Z,992
2024-04-24T12:04:41.334Z,992
2024-04-24T12:06:03.254Z,992
2024-04-24T12:07:25.255Z,992
2024-04-24T12:08:47.226Z,991.9
2024-04-24T12:10:09.228Z,991.9
2024-04-24T12:11:31.242Z,992
2024-04-24T12:12:53.229Z,991.9
2024-04-24T12:14:15.300Z,992
2024-04-24T12:15:37.238Z,992
2024-04-24T12:16:59.283Z,992
2024-04-24T12:18:21.248Z,992
2024-04-24T12:19:44.343Z,992
2024-04-24T12:21:06.230Z,992
2024-04-24T12:22:28.334Z,991.9
2024-04-24T12:23:50.252Z,991.9
2024-04-24T12:25:12.287Z,991.9
2024-04-24T12:26:34.285Z,991.9
2024-04-24T12:27:56.243Z,991.9
2024-04-24T12:29:18.285Z,991.9
2024-04-24T12:30:40.246Z,991.9
2024-04-24T12:32:03.248Z,991.9
2024-04-24T12:33:25.372Z,991.9
2024-04-24T12:34:47.462Z,991.9
2024-04-24T12:36:09.276Z,991.9
2024-04-24T12:37:31.263Z,991.8
2024-04-24T12:38:53.239Z,991.9
2024-04-24T12:40:15.528Z,991.9
2024-04-24T12:41:37.251Z,991.8
2024-04-24T12:42:59.250Z,991.9
2024-04-24T12:44:21.301Z,991.8
2024-04-24T12:46:25.242Z,991.8
2024-04-24T12:48:28.293Z,991.8
2024-04-24T12:49:50.291Z,991.8
2024-04-24T12:51:12.269Z,991.8
2024-04-24T12:52:34.300Z,991.8
2024-04-24T12:54:38.947Z,991.8
2024-04-24T12:56:40.276Z,991.8
2024-04-24T12:58:05.253Z,991.8
2024-04-24T12:59:27.279Z,991.8
2024-04-24T13:00:49.294Z,991.8
2024-04-24T13:02:11.325Z,991.8
2024-04-24T13:04:15.340Z,991.9
2024-04-24T13:06:20.429Z,991.8
2024-04-24T13:07:40.299Z,991.6
2024-04-24T13:09:03.281Z,991.7
2024-04-24T13:12:28.273Z,991.6
2024-04-24T13:14:31.491Z,991.7
2024-04-24T13:15:53.282Z,991.7
2024-04-24T13:17:15.328Z,991.7
2024-04-24T13:19:18.463Z,991.7
2024-04-24T13:20:40.391Z,991.7
2024-04-24T13:22:44.270Z,991.6
2024-04-24T13:24:06.289Z,991.6
2024-04-24T13:25:28.355Z,991.6
2024-04-24T13:26:09.345Z,991.6
2024-04-24T13:27:31.324Z,991.6
2024-04-24T13:28:53.297Z,991.6
2024-04-24T13:32:18.336Z,991.5
2024-04-24T13:33:41.362Z,991.5
2024-04-24T13:35:44.397Z,991.5
2024-04-24T13:37:06.321Z,991.5
2024-04-24T13:40:31.286Z,991.5
2024-04-24T13:41:53.277Z,991.5
2024-04-24T13:43:56.328Z,991.6
2024-04-24T13:45:18.321Z,991.5
2024-04-24T13:47:21.302Z,991.4
2024-04-24T13:48:44.504Z,991.5
2024-04-24T13:49:25.286Z,991.5
2024-04-24T13:50:47.284Z,991.5
2024-04-24T13:52:09.319Z,991.5
2024-04-24T13:53:31.341Z,991.5
2024-04-24T13:54:53.298Z,991.5
2024-04-24T13:56:15.351Z,991.5
2024-04-24T13:57:37.377Z,991.3
2024-04-24T13:58:59.342Z,991.4
2024-04-24T14:00:21.309Z,991.4
2024-04-24T14:01:47.351Z,991.4
2024-04-24T14:03:10.428Z,991.4
2024-04-24T14:05:13.313Z,991.4
2024-04-24T14:06:35.310Z,991.4
2024-04-24T14:10:00.340Z,991.4
2024-04-24T14:11:22.354Z,991.4
2024-04-24T14:13:25.334Z,991.3
2024-04-24T14:14:47.321Z,991.3
2024-04-24T14:18:12.338Z,991.3
2024-04-24T14:20:15.344Z,991.3
2024-04-24T14:21:37.332Z,991.3
2024-04-24T14:22:59.371Z,991.3
2024-04-24T14:25:04.312Z,991.2
2024-04-24T14:26:26.415Z,991.2
2024-04-24T14:27:48.333Z,991
2024-04-24T14:29:51.328Z,991.1
2024-04-24T14:31:13.309Z,991.2
2024-04-24T14:34:38.311Z,991.2
2024-04-24T14:36:41.302Z,991.1
2024-04-24T14:38:03.365Z,991.1
2024-04-24T14:39:25.403Z,991.1
2024-04-24T14:41:28.346Z,991.1
2024-04-24T14:42:50.304Z,991
2024-04-24T14:46:15.306Z,991.1
2024-04-24T14:47:37.516Z,991.1
2024-04-24T14:48:18.431Z,991.1
2024-04-24T14:49:40.385Z,991.1
2024-04-24T14:51:03.307Z,991.3
2024-04-24T14:53:07.347Z,991.1
2024-04-24T14:54:29.318Z,991.1
2024-04-24T14:55:51.453Z,991.1
2024-04-24T14:57:54.326Z,991
2024-04-24T14:59:16.373Z,991.1
2024-04-24T15:02:41.365Z,991.1
2024-04-24T15:04:03.352Z,991
2024-04-24T15:06:06.352Z,991
2024-04-24T15:07:28.328Z,991.1
2024-04-24T15:10:53.326Z,991
2024-04-24T15:11:34.549Z,991
2024-04-24T15:12:56.336Z,991
2024-04-24T15:14:18.377Z,991.1
2024-04-24T15:15:40.390Z,991.1
2024-04-24T15:19:06.334Z,990.9
2024-04-24T15:20:28.397Z,991
2024-04-24T15:22:31.360Z,991
2024-04-24T15:24:34.355Z,991
2024-04-24T15:25:56.340Z,991
2024-04-24T15:27:18.403Z,991
2024-04-24T15:28:43.354Z,991
2024-04-24T15:32:11.478Z,990.9
2024-04-24T15:34:14.347Z,991
2024-04-24T15:35:36.372Z,990.9
2024-04-24T15:36:58.365Z,991
2024-04-24T15:38:20.504Z,990.6
2024-04-24T15:40:25.368Z,990.8
2024-04-24T15:41:47.466Z,991
2024-04-24T15:45:12.407Z,990.9
2024-04-24T15:47:15.447Z,990.9
2024-04-24T15:48:37.478Z,990.9
2024-04-24T15:49:59.494Z,990.9
2024-04-24T15:51:21.435Z,990.9
2024-04-24T15:53:25.383Z,990.9
2024-04-24T15:55:28.361Z,990.9
2024-04-24T15:56:50.386Z,990.9
2024-04-24T15:58:53.350Z,990.9
2024-04-24T16:00:15.388Z,990.9
2024-04-24T16:01:37.368Z,990.9
2024-04-24T16:02:59.399Z,990.9
2024-04-24T16:05:03.379Z,990.9
2024-04-24T16:07:06.410Z,990.9
2024-04-24T16:08:28.412Z,990.9
2024-04-24T16:09:50.385Z,990.9
2024-04-24T16:11:12.377Z,990.8
2024-04-24T16:13:15.368Z,990.9
2024-04-24T16:15:18.464Z,990.9
2024-04-24T16:16:40.362Z,990.8
2024-04-24T16:18:03.433Z,990.8
2024-04-24T16:19:25.508Z,990.9
2024-04-24T16:20:47.375Z,990.8
2024-04-24T16:21:28.367Z,990.8
2024-04-24T16:23:31.503Z,990.8
2024-04-24T16:24:53.448Z,990.8
2024-04-24T16:26:15.403Z,990.8
2024-04-24T16:27:37.385Z,990.8
2024-04-24T16:28:59.477Z,990.8
2024-04-24T16:30:21.379Z,990.1
2024-04-24T16:31:44.415Z,990.8
2024-04-24T16:33:06.638Z,990.8
2024-04-24T16:34:28.367Z,990.8
2024-04-24T16:35:50.398Z,990.8
2024-04-24T16:37:12.378Z,990.8
2024-04-24T16:38:34.467Z,990.7
2024-04-24T16:39:56.390Z,990.8
2024-04-24T16:41:18.413Z,990.8
2024-04-24T16:42:41.395Z,990.8
2024-04-24T16:44:04.462Z,990.8
2024-04-24T16:46:07.396Z,990.7
2024-04-24T16:48:10.588Z,990.8
2024-04-24T16:49:33.439Z,990.8
2024-04-24T16:50:56.389Z,990.8
2024-04-24T16:52:19.379Z,990.8
2024-04-24T16:54:22.405Z,990.8
2024-04-24T16:55:49.996Z,990.8
2024-04-24T16:57:51.405Z,990.8
2024-04-24T16:59:13.397Z,990.8
2024-04-24T17:00:35.488Z,991
2024-04-24T17:01:57.392Z,990.9
2024-04-24T17:04:00.447Z,990.8
2024-04-24T17:06:03.431Z,990.8
2024-04-24T17:07:25.396Z,990.7
2024-04-24T17:08:47.420Z,990.8
2024-04-24T17:10:09.406Z,990.9
2024-04-24T17:11:31.540Z,990.9
2024-04-24T17:12:53.405Z,990.9
2024-04-24T17:14:15.667Z,990.9
2024-04-24T17:15:37.421Z,990.9
2024-04-24T17:16:59.441Z,990.9
2024-04-24T17:18:21.487Z,990.6
2024-04-24T17:19:44.439Z,990.8
2024-04-24T17:21:06.420Z,990.9
2024-04-24T17:22:28.408Z,990.9
2024-04-24T17:23:50.457Z,990.8
2024-04-24T17:25:12.408Z,990.9
2024-04-24T17:25:53.410Z,990.8
2024-04-24T17:26:38.520Z,990.9
2024-04-24T17:27:56.407Z,990.9
2024-04-24T17:29:18.441Z,990.9
2024-04-24T17:30:40.414Z,990.9
2024-04-24T17:32:03.501Z,990.9
2024-04-24T17:33:25.411Z,990.9
2024-04-24T17:34:47.400Z,991
2024-04-24T17:36:09.439Z,990.9
2024-04-24T17:37:31.418Z,991
2024-04-24T17:38:53.428Z,990.9
2024-04-24T17:40:15.459Z,991
2024-04-24T17:41:37.529Z,991
2024-04-24T17:42:59.441Z,991
2024-04-24T17:44:21.427Z,991
2024-04-24T17:45:44.406Z,991
2024-04-24T17:47:06.412Z,991
2024-04-24T17:48:28.473Z,990.9
2024-04-24T17:49:50.441Z,991
2024-04-24T17:51:12.424Z,991
2024-04-24T17:52:34.565Z,990.9
2024-04-24T17:53:56.460Z,990.7
2024-04-24T17:55:18.409Z,991
2024-04-24T17:56:40.445Z,991
2024-04-24T17:58:03.421Z,990.9
2024-04-24T18:00:06.430Z,991
2024-04-24T18:01:28.475Z,991.1
2024-04-24T18:04:53.424Z,991
2024-04-24T18:06:56.460Z,991
2024-04-24T18:08:18.460Z,991
2024-04-24T18:09:40.490Z,991.2
2024-04-24T18:13:06.433Z,991.1
2024-04-24T18:14:28.481Z,991
2024-04-24T18:15:09.434Z,991
2024-04-24T18:16:31.422Z,991.1
2024-04-24T18:17:53.433Z,991.2
2024-04-24T18:19:56.468Z,991.2
2024-04-24T18:21:18.479Z,991.2
2024-04-24T18:24:44.434Z,991.3
2024-04-24T18:26:06.448Z,991.2
2024-04-24T18:28:09.456Z,991.2
2024-04-24T18:29:31.464Z,991.3
2024-04-24T18:32:56.577Z,991.3
2024-04-24T18:34:18.444Z,991.3
2024-04-24T18:36:21.545Z,991.3
2024-04-24T18:37:44.478Z,991.3
2024-04-24T18:39:47.690Z,991.3
2024-04-24T18:41:09.479Z,991.4
2024-04-24T18:42:31.447Z,991.3
2024-04-24T18:44:34.492Z,991.4
2024-04-24T18:45:56.444Z,991.5
2024-04-24T18:49:21.507Z,991.5
2024-04-24T18:51:25.459Z,991.4
2024-04-24T18:52:48.448Z,991.5
2024-04-24T18:54:10.493Z,991.5
2024-04-24T18:55:32.453Z,991.4
2024-04-24T18:57:35.454Z,991.5
2024-04-24T18:59:38.463Z,991.5
2024-04-24T19:01:00.514Z,991.5
2024-04-24T19:02:22.579Z,991.6
2024-04-24T19:05:06.492Z,991.6
2024-04-24T19:05:47.614Z,991.5
2024-04-24T19:07:09.457Z,991.6
2024-04-24T19:07:50.477Z,991.6
2024-04-24T19:09:12.461Z,991.6
2024-04-24T19:10:34.481Z,991.6
2024-04-24T19:12:37.496Z,991.6
2024-04-24T19:13:59.605Z,991.6
2024-04-24T19:16:03.510Z,991.6
2024-04-24T19:17:25.503Z,991.6
2024-04-24T19:18:47.504Z,991.6
2024-04-24T19:20:50.529Z,991.5
2024-04-24T19:22:12.512Z,991.6
2024-04-24T19:25:37.505Z,991.6
2024-04-24T19:26:59.503Z,991.6
2024-04-24T19:28:21.462Z,991.6
2024-04-24T19:29:03.509Z,991.6
2024-04-24T19:30:25.470Z,991.6
2024-04-24T19:32:28.634Z,991.6
2024-04-24T19:33:50.491Z,991.6
2024-04-24T19:35:12.512Z,991.6
2024-04-24T19:37:15.489Z,991.5
2024-04-24T19:38:37.541Z,991.4
2024-04-24T19:42:03.484Z,991.6
2024-04-24T19:44:08.211Z,991.4
2024-04-24T19:45:28.492Z,991.6
2024-04-24T19:46:50.514Z,991.6